Time;durP1;ratioP1;P1;durP2;ratioP2;P2;SDS_P1;SDS_P2;PMS_P1;PMS_P2;Temp;Humidity;BMP_temperature;BMP_pressure;BME280_temperature;BME280_humidity;BME280_pressure;Samples;Min_cycle;Max_cycle;Signal;HPM_P1;HPM_P2
2021/12/29 00:01:51;;;;;;;2.88;1.55;;;23.20;35.40;;;;;;5012400;28;20072;-45
2021/12/29 00:04:17;;;;;;;2.55;1.48;;;23.20;35.40;;;;;;5005806;28;20040;-45
2021/12/29 00:06:43;;;;;;;2.75;1.63;;;23.20;35.40;;;;;;5006632;28;20022;-45
2021/12/29 00:09:09;;;;;;;2.85;1.67;;;23.20;35.40;;;;;;5006014;28;20525;-45
2021/12/29 00:11:38;;;;;;;3.22;1.75;;;23.20;35.40;;;;;;5006331;28;20125;-45
2021/12/29 00:14:04;;;;;;;2.40;1.25;;;23.10;35.40;;;;;;5005793;28;20034;-45
2021/12/29 00:16:34;;;;;;;2.83;1.50;;;23.10;35.40;;;;;;5003708;28;20056;-45
2021/12/29 00:19:04;;;;;;;2.78;1.50;;;23.20;35.30;;;;;;5006711;28;20085;-45
2021/12/29 00:21:32;;;;;;;2.38;1.45;;;23.10;35.40;;;;;;5006862;28;20077;-45
2021/12/29 00:23:59;;;;;;;3.20;1.52;;;23.10;35.40;;;;;;5006747;28;20093;-45
2021/12/29 00:26:27;;;;;;;3.38;2.20;;;23.10;35.40;;;;;;5005149;28;20025;-45
2021/12/29 00:28:53;;;;;;;3.30;1.80;;;23.10;35.40;;;;;;5005998;28;20025;-45
2021/12/29 00:31:19;;;;;;;2.72;1.50;;;23.10;35.30;;;;;;5005929;28;20109;-45
2021/12/29 00:33:45;;;;;;;3.20;1.70;;;23.10;35.30;;;;;;5006144;28;20085;-45
2021/12/29 00:36:11;;;;;;;2.90;1.75;;;23.00;35.30;;;;;;5006623;28;20030;-45
2021/12/29 00:38:37;;;;;;;2.83;1.63;;;23.00;35.30;;;;;;5006332;28;20042;-45
2021/12/29 00:41:03;;;;;;;2.55;1.38;;;23.00;35.30;;;;;;5006685;28;20037;-45
2021/12/29 00:43:29;;;;;;;3.20;2.00;;;23.00;35.30;;;;;;5005453;28;20029;-45
2021/12/29 00:45:55;;;;;;;3.83;1.80;;;23.10;35.30;;;;;;5006027;28;20026;-45
2021/12/29 00:48:23;;;;;;;2.85;1.75;;;23.00;35.30;;;;;;5006103;28;20087;-45
2021/12/29 00:50:49;;;;;;;3.30;1.98;;;23.00;35.30;;;;;;5030812;28;20100;-45
2021/12/29 00:53:16;;;;;;;3.00;1.60;;;23.00;35.30;;;;;;5045021;28;20112;-45
2021/12/29 00:55:42;;;;;;;3.33;1.92;;;23.00;35.30;;;;;;5040016;28;20034;-47
2021/12/29 00:58:08;;;;;;;3.53;1.88;;;22.90;35.40;;;;;;5020760;28;20052;-45
2021/12/29 01:00:40;;;;;;;3.17;2.05;;;23.00;35.40;;;;;;5017814;28;20041;-45
2021/12/29 01:03:07;;;;;;;2.80;1.67;;;22.90;35.50;;;;;;5015407;28;20040;-46
2021/12/29 01:05:33;;;;;;;3.47;2.20;;;22.90;35.50;;;;;;5022489;28;20521;-44
2021/12/29 01:07:59;;;;;;;2.92;1.70;;;22.90;35.50;;;;;;5016314;28;20029;-45
2021/12/29 01:10:26;;;;;;;3.53;2.15;;;22.90;35.50;;;;;;5025436;28;20075;-45
2021/12/29 01:13:01;;;;;;;2.88;1.80;;;22.90;35.50;;;;;;5024979;28;20048;-45
2021/12/29 01:15:34;;;;;;;3.25;1.90;;;22.90;35.50;;;;;;5025751;28;20421;-45
2021/12/29 01:18:05;;;;;;;3.08;1.77;;;22.80;35.40;;;;;;5025591;28;20029;-44
2021/12/29 01:20:31;;;;;;;3.38;1.98;;;22.80;35.50;;;;;;5024957;28;20030;-45
2021/12/29 01:22:59;;;;;;;3.60;2.00;;;22.80;35.50;;;;;;5024409;28;20113;-45
2021/12/29 01:25:25;;;;;;;3.30;1.92;;;22.80;35.40;;;;;;5017353;28;20112;-45
2021/12/29 01:27:51;;;;;;;3.38;2.08;;;22.80;35.40;;;;;;5004923;28;20030;-45
2021/12/29 01:30:17;;;;;;;3.75;2.22;;;22.80;35.30;;;;;;5005038;28;20080;-45
2021/12/29 01:32:43;;;;;;;3.60;2.10;;;22.80;35.30;;;;;;5004888;28;20033;-44
2021/12/29 01:35:11;;;;;;;3.75;2.38;;;22.80;35.30;;;;;;5010347;28;20013;-45
2021/12/29 01:37:39;;;;;;;3.90;2.30;;;22.80;35.30;;;;;;5014040;28;20120;-45
2021/12/29 01:40:08;;;;;;;4.03;2.40;;;22.80;35.30;;;;;;5020224;28;20143;-45
2021/12/29 01:42:33;;;;;;;3.22;1.92;;;22.80;35.30;;;;;;5014078;28;20072;-45
2021/12/29 01:44:59;;;;;;;3.80;2.28;;;22.80;35.30;;;;;;5023405;28;20029;-45
2021/12/29 01:47:31;;;;;;;2.97;1.80;;;22.80;35.30;;;;;;5021281;28;20540;-45
2021/12/29 01:50:00;;;;;;;3.95;2.38;;;22.80;35.30;;;;;;5029593;28;20056;-45
2021/12/29 01:52:33;;;;;;;4.10;2.40;;;22.80;35.30;;;;;;5043358;28;20025;-45
2021/12/29 01:54:58;;;;;;;;;;;22.70;35.20;;;;;;5035349;28;20069;-45
2021/12/29 01:57:24;;;;;;;4.10;2.42;;;22.80;35.30;;;;;;5012852;28;20403;-45
2021/12/29 01:59:50;;;;;;;3.80;2.10;;;22.70;35.30;;;;;;5016152;28;20032;-45
2021/12/29 02:02:16;;;;;;;3.72;2.50;;;22.80;35.30;;;;;;5018765;28;20040;-45
2021/12/29 02:04:44;;;;;;;4.40;2.92;;;22.70;35.30;;;;;;5020506;28;20104;-45
2021/12/29 02:07:10;;;;;;;4.35;2.72;;;22.70;35.40;;;;;;5023094;28;20029;-45
2021/12/29 02:09:36;;;;;;;3.65;2.33;;;22.70;35.30;;;;;;5024104;28;20687;-45
2021/12/29 02:12:03;;;;;;;4.18;2.55;;;22.70;35.30;;;;;;5004052;28;20041;-45
2021/12/29 02:14:29;;;;;;;3.80;2.40;;;22.70;35.30;;;;;;5004462;28;20115;-45
2021/12/29 02:16:55;;;;;;;4.30;2.60;;;22.70;35.30;;;;;;5004374;28;20034;-45
2021/12/29 02:19:22;;;;;;;5.13;3.13;;;22.70;35.30;;;;;;5004898;28;20022;-45
2021/12/29 02:21:57;;;;;;;3.72;2.30;;;22.70;35.30;;;;;;5004654;28;20032;-46
2021/12/29 02:24:37;;;;;;;4.50;3.03;;;22.70;35.30;;;;;;5004490;28;20107;-45
2021/12/29 02:27:05;;;;;;;4.68;3.22;;;22.60;35.20;;;;;;5004434;28;20143;-45
2021/12/29 02:29:32;;;;;;;4.55;3.20;;;22.70;35.30;;;;;;5004537;28;20037;-46
2021/12/29 02:31:58;;;;;;;4.13;2.72;;;22.70;35.20;;;;;;5003597;28;20486;-45
2021/12/29 02:34:24;;;;;;;4.50;3.05;;;22.70;35.30;;;;;;5004479;28;20032;-45
2021/12/29 02:36:50;;;;;;;3.95;2.42;;;22.60;35.20;;;;;;5004444;28;20033;-45
2021/12/29 02:39:20;;;;;;;4.00;2.70;;;22.60;35.20;;;;;;5006646;28;20115;-45
2021/12/29 02:41:51;;;;;;;4.63;3.00;;;22.60;35.20;;;;;;5008446;28;20214;-45
2021/12/29 02:44:24;;;;;;;4.80;3.13;;;22.60;35.20;;;;;;5007480;28;20141;-45
2021/12/29 02:46:49;;;;;;;;;;;22.60;35.20;;;;;;5008731;28;20026;-45
2021/12/29 02:49:15;;;;;;;4.28;2.85;;;22.60;35.20;;;;;;5008402;28;19910;-45
2021/12/29 02:51:41;;;;;;;4.38;2.80;;;22.60;35.30;;;;;;5046991;28;20035;-45
2021/12/29 02:54:07;;;;;;;4.38;2.90;;;22.60;35.20;;;;;;5047830;28;20033;-45
2021/12/29 02:56:33;;;;;;;4.50;2.95;;;22.60;35.20;;;;;;5048533;28;20389;-45
2021/12/29 02:58:59;;;;;;;5.30;3.17;;;22.60;35.40;;;;;;5047948;28;20032;-45
2021/12/29 03:01:27;;;;;;;4.38;3.03;;;22.60;35.50;;;;;;5018118;28;20046;-45
2021/12/29 03:03:54;;;;;;;4.82;3.10;;;22.60;35.40;;;;;;5012463;28;20104;-46
2021/12/29 03:06:20;;;;;;;4.40;2.72;;;22.60;35.40;;;;;;5027710;28;20065;-46
2021/12/29 03:08:46;;;;;;;5.10;3.20;;;22.60;35.30;;;;;;5027512;28;20069;-45
2021/12/29 03:11:12;;;;;;;5.25;3.67;;;22.60;35.30;;;;;;5028102;28;20538;-45
2021/12/29 03:13:40;;;;;;;4.63;2.85;;;22.60;35.20;;;;;;5027452;28;20029;-45
2021/12/29 03:16:07;;;;;;;4.53;3.22;;;22.60;35.30;;;;;;5017406;28;20022;-45
2021/12/29 03:18:33;;;;;;;4.85;3.08;;;22.50;35.30;;;;;;5007633;28;20479;-45
2021/12/29 03:20:59;;;;;;;5.15;3.58;;;22.50;35.20;;;;;;5008167;28;20109;-45
2021/12/29 03:23:25;;;;;;;4.78;3.25;;;22.50;35.20;;;;;;5007677;28;20084;-45
2021/12/29 03:25:52;;;;;;;4.40;3.20;;;22.50;35.20;;;;;;5008042;28;20683;-45
2021/12/29 03:28:20;;;;;;;4.90;3.40;;;22.50;35.20;;;;;;5007699;28;20498;-45
2021/12/29 03:30:50;;;;;;;4.93;3.17;;;22.50;35.20;;;;;;5006849;28;20030;-45
2021/12/29 03:33:16;;;;;;;5.05;3.72;;;22.50;35.20;;;;;;5007440;28;20962;-45
2021/12/29 03:35:45;;;;;;;4.35;2.97;;;22.50;35.20;;;;;;5007355;28;20105;-45
2021/12/29 03:38:15;;;;;;;5.00;3.17;;;22.50;35.20;;;;;;5005978;28;20057;-45
2021/12/29 03:40:42;;;;;;;4.57;3.33;;;22.50;35.20;;;;;;5007305;28;20136;-45
2021/12/29 03:43:09;;;;;;;4.90;3.55;;;22.50;35.90;;;;;;5007200;28;20030;-45
2021/12/29 03:45:37;;;;;;;4.22;3.05;;;22.50;35.20;;;;;;5007094;28;20066;-45
2021/12/29 03:48:08;;;;;;;5.45;3.83;;;22.50;35.20;;;;;;5006966;28;20419;-48
2021/12/29 03:50:35;;;;;;;4.15;2.80;;;22.50;35.20;;;;;;5026126;28;20029;-45
2021/12/29 03:53:01;;;;;;;4.47;3.10;;;22.50;35.20;;;;;;5046038;28;20031;-45
2021/12/29 03:55:27;;;;;;;4.15;2.95;;;22.50;35.10;;;;;;5045548;28;20025;-45
2021/12/29 03:57:53;;;;;;;5.30;3.78;;;22.50;35.20;;;;;;5046330;28;20032;-45
2021/12/29 04:00:20;;;;;;;4.53;3.35;;;22.40;35.20;;;;;;5035478;28;20062;-45
2021/12/29 04:02:46;;;;;;;4.82;3.28;;;22.40;35.10;;;;;;5006943;28;20040;-45
2021/12/29 04:05:16;;;;;;;4.88;3.78;;;22.40;35.10;;;;;;5007001;28;20534;-45
2021/12/29 04:07:42;;;;;;;5.20;3.63;;;22.40;35.10;;;;;;5007208;28;20137;-45
2021/12/29 04:10:10;;;;;;;5.30;3.67;;;22.40;35.10;;;;;;5007023;28;20086;-45
2021/12/29 04:12:38;;;;;;;5.18;3.78;;;22.40;35.10;;;;;;5006425;28;20022;-45
2021/12/29 04:15:05;;;;;;;4.93;3.67;;;22.40;35.10;;;;;;5006790;28;20057;-45
2021/12/29 04:17:37;;;;;;;5.65;3.97;;;22.40;35.10;;;;;;5006786;28;20018;-45
2021/12/29 04:23:09;;;;;;;4.93;3.60;;;22.30;35.10;;;;;;5006723;28;20412;-45
2021/12/29 04:25:37;;;;;;;4.38;3.28;;;22.40;35.10;;;;;;5006530;28;20473;-45
2021/12/29 04:28:08;;;;;;;4.13;3.13;;;22.40;35.10;;;;;;5006153;28;20025;-45
2021/12/29 04:30:34;;;;;;;5.55;4.18;;;22.30;35.10;;;;;;5006031;28;20030;-45
2021/12/29 04:33:00;;;;;;;4.82;3.55;;;22.30;35.10;;;;;;5005792;28;20080;-45
2021/12/29 04:35:26;;;;;;;5.05;3.38;;;22.30;35.10;;;;;;5006404;28;20457;-45
2021/12/29 04:37:52;;;;;;;4.70;3.40;;;22.30;35.10;;;;;;5006015;28;20133;-45
2021/12/29 04:40:18;;;;;;;5.00;3.70;;;22.30;35.20;;;;;;5005755;28;20402;-45
2021/12/29 04:42:44;;;;;;;5.43;4.03;;;22.30;35.10;;;;;;5005067;28;20414;-45
2021/12/29 04:45:10;;;;;;;4.82;3.55;;;22.30;35.10;;;;;;5005946;28;20030;-45
2021/12/29 04:47:40;;;;;;;4.90;3.53;;;22.30;35.80;;;;;;5006297;28;20030;-45
2021/12/29 04:50:17;;;;;;;4.70;3.30;;;22.30;35.40;;;;;;5018273;28;20100;-45
2021/12/29 04:52:44;;;;;;;4.45;3.15;;;22.30;35.40;;;;;;5045802;28;20025;-45
2021/12/29 04:55:10;;;;;;;5.10;3.65;;;22.30;35.40;;;;;;5042136;28;20033;-45
2021/12/29 04:57:35;;;;;;;4.70;3.20;;;22.30;35.40;;;;;;5005369;28;20107;-45
2021/12/29 05:00:02;;;;;;;5.05;3.70;;;22.30;35.20;;;;;;5005965;28;20714;-45
2021/12/29 05:02:28;;;;;;;5.22;3.72;;;22.30;35.20;;;;;;5005138;28;20042;-45
2021/12/29 05:05:08;;;;;;;4.88;3.40;;;22.30;35.20;;;;;;5006575;28;20156;-45
2021/12/29 05:10:18;;;;;;;5.28;3.80;;;22.20;35.20;;;;;;5005875;28;20083;-45
2021/12/29 05:12:44;;;;;;;4.40;3.25;;;22.20;35.20;;;;;;5004640;28;20030;-45
2021/12/29 05:15:10;;;;;;;5.57;3.67;;;22.20;35.20;;;;;;5004415;28;20021;-45
2021/12/29 05:17:35;;;;;;;5.10;3.40;;;22.20;35.30;;;;;;5005754;28;20585;-45
2021/12/29 05:20:01;;;;;;;4.63;3.05;;;22.20;35.40;;;;;;5005376;28;20030;-45
2021/12/29 05:22:27;;;;;;;5.03;3.40;;;22.20;35.40;;;;;;5004611;28;20037;-45
2021/12/29 05:24:53;;;;;;;6.20;4.22;;;22.20;35.40;;;;;;5004962;28;20030;-47
2021/12/29 05:27:18;;;;;;;4.90;3.50;;;22.20;35.60;;;;;;5005777;28;20037;-45
2021/12/29 05:29:44;;;;;;;5.72;3.78;;;22.30;35.70;;;;;;5005812;28;20022;-48
2021/12/29 05:32:10;;;;;;;4.45;3.40;;;22.30;35.70;;;;;;5006006;28;20105;-44
2021/12/29 05:34:36;;;;;;;4.03;2.40;;;22.30;35.70;;;;;;5005949;28;20109;-45
2021/12/29 05:37:02;;;;;;;4.90;3.28;;;22.30;35.60;;;;;;5006140;28;20406;-45
2021/12/29 05:39:28;;;;;;;5.22;3.53;;;22.40;35.60;;;;;;5005419;28;20037;-44
2021/12/29 05:41:54;;;;;;;4.78;3.13;;;22.40;35.60;;;;;;5005429;28;20080;-45
2021/12/29 05:44:19;;;;;;;4.47;3.03;;;22.50;35.70;;;;;;5005145;28;20057;-45
2021/12/29 05:46:45;;;;;;;4.22;2.83;;;22.50;35.60;;;;;;5005362;28;20026;-45
2021/12/29 05:49:11;;;;;;;4.57;2.55;;;22.60;35.50;;;;;;5005725;28;20103;-46
2021/12/29 05:51:37;;;;;;;4.60;3.03;;;22.60;35.40;;;;;;5042699;28;20029;-45
2021/12/29 05:54:03;;;;;;;3.95;2.65;;;22.70;35.40;;;;;;5044584;28;20075;-45
2021/12/29 05:56:29;;;;;;;4.25;3.10;;;22.80;35.40;;;;;;5043702;28;20025;-45
2021/12/29 05:59:01;;;;;;;4.50;2.90;;;22.90;35.40;;;;;;5044202;28;20036;-45
2021/12/29 06:01:28;;;;;;;4.47;2.97;;;22.90;35.30;;;;;;5044715;28;20459;-45
2021/12/29 06:03:55;;;;;;;4.18;2.53;;;23.00;35.20;;;;;;5044736;28;20033;-45
2021/12/29 06:06:20;;;;;;;5.65;3.28;;;23.00;35.10;;;;;;5027515;28;20029;-45
2021/12/29 06:08:46;;;;;;;4.40;2.80;;;23.10;35.10;;;;;;5021598;28;20091;-45
2021/12/29 06:11:12;;;;;;;4.50;2.55;;;23.20;35.00;;;;;;5005316;28;20025;-45
2021/12/29 06:13:38;;;;;;;4.50;2.63;;;23.30;35.10;;;;;;5004563;28;20079;-46
2021/12/29 06:16:04;;;;;;;4.15;2.85;;;23.30;34.90;;;;;;5004062;28;20531;-45
2021/12/29 06:18:30;;;;;;;4.65;2.92;;;23.30;34.90;;;;;;5005228;28;20109;-45
2021/12/29 06:20:55;;;;;;;4.32;2.78;;;23.50;34.90;;;;;;5004579;28;20026;-45
2021/12/29 06:23:21;;;;;;;6.65;3.20;;;23.50;34.70;;;;;;5005071;28;20037;-45
2021/12/29 06:25:47;;;;;;;5.85;3.20;;;23.50;34.60;;;;;;5003420;28;20038;-45
2021/12/29 06:28:13;;;;;;;4.15;2.65;;;23.60;34.50;;;;;;5004623;28;20029;-50
2021/12/29 06:30:39;;;;;;;4.40;2.75;;;23.70;34.60;;;;;;5005185;28;20061;-46
2021/12/29 06:33:05;;;;;;;4.60;2.65;;;23.70;34.50;;;;;;5005024;28;20060;-47
2021/12/29 06:35:31;;;;;;;4.00;2.38;;;23.80;34.50;;;;;;5004252;28;20030;-45
2021/12/29 06:37:56;;;;;;;4.88;2.70;;;23.80;34.40;;;;;;5003482;28;20097;-45
2021/12/29 06:40:22;;;;;;;4.05;2.47;;;23.90;34.40;;;;;;5004187;28;20034;-45
2021/12/29 06:42:48;;;;;;;4.50;2.67;;;23.90;34.30;;;;;;5004307;28;20058;-45
2021/12/29 06:45:14;;;;;;;5.57;2.72;;;24.00;34.10;;;;;;5004135;28;20516;-45
2021/12/29 06:47:40;;;;;;;4.30;2.50;;;24.10;34.20;;;;;;5004162;28;20026;-45
2021/12/29 06:50:07;;;;;;;5.53;2.78;;;24.10;34.10;;;;;;5016264;28;20217;-46
2021/12/29 06:52:34;;;;;;;3.55;2.22;;;24.20;34.00;;;;;;5043193;28;20052;-46
2021/12/29 06:55:00;;;;;;;4.07;2.28;;;24.20;33.90;;;;;;5023130;28;20109;-45
2021/12/29 06:57:26;;;;;;;4.47;2.80;;;24.30;34.00;;;;;;5020529;28;20097;-46
2021/12/29 06:59:52;;;;;;;4.57;2.45;;;24.30;33.90;;;;;;5017843;28;20100;-45
2021/12/29 07:02:18;;;;;;;5.70;3.10;;;24.40;34.00;;;;;;5020135;28;20708;-45
2021/12/29 07:04:44;;;;;;;4.95;2.45;;;24.40;34.00;;;;;;5021127;28;20510;-45
2021/12/29 07:07:10;;;;;;;4.35;2.45;;;24.40;34.20;;;;;;5019174;28;20033;-45
2021/12/29 07:09:36;;;;;;;3.97;2.50;;;24.50;34.20;;;;;;5022896;28;20030;-46
2021/12/29 07:12:03;;;;;;;6.45;2.67;;;24.50;34.30;;;;;;5018010;28;20047;-46
2021/12/29 07:14:28;;;;;;;3.85;2.30;;;24.50;34.30;;;;;;5016409;28;20053;-46
2021/12/29 07:16:54;;;;;;;4.13;2.42;;;24.60;34.40;;;;;;5020482;28;20068;-46
2021/12/29 07:19:21;;;;;;;5.78;3.00;;;24.60;34.50;;;;;;5022398;28;20021;-45
2021/12/29 07:21:49;;;;;;;7.10;2.83;;;24.60;35.00;;;;;;5007510;28;20083;-46
2021/12/29 07:24:16;;;;;;;5.28;3.28;;;24.60;35.10;;;;;;5019978;28;20051;-46
2021/12/29 07:26:42;;;;;;;9.85;3.63;;;24.70;35.20;;;;;;5025777;28;20034;-45
2021/12/29 07:29:08;;;;;;;5.05;2.88;;;24.70;36.00;;;;;;5025687;28;20021;-45
2021/12/29 07:31:34;;;;;;;5.60;2.90;;;24.70;35.30;;;;;;5025938;28;20036;-45
2021/12/29 07:34:00;;;;;;;6.75;3.20;;;24.70;35.30;;;;;;5026380;28;20079;-46
2021/12/29 07:36:26;;;;;;;5.43;2.50;;;24.80;35.20;;;;;;5021858;28;20030;-45
2021/12/29 07:38:52;;;;;;;6.13;2.97;;;24.80;35.20;;;;;;5016261;28;20036;-46
2021/12/29 07:41:18;;;;;;;8.75;3.03;;;24.80;35.10;;;;;;5015700;28;20056;-45
2021/12/29 07:43:44;;;;;;;5.25;2.90;;;24.80;35.10;;;;;;5005734;28;20087;-45
2021/12/29 07:46:12;;;;;;;6.85;2.83;;;24.80;35.00;;;;;;5006795;28;20026;-46
2021/12/29 07:48:37;;;;;;;5.15;3.03;;;24.90;35.00;;;;;;5006052;28;20513;-45
2021/12/29 07:51:07;;;;;;;4.88;3.05;;;24.90;35.00;;;;;;5019163;28;20056;-45
2021/12/29 07:53:37;;;;;;;5.85;2.90;;;24.90;34.90;;;;;;5017031;28;20108;-46
2021/12/29 07:56:06;;;;;;;4.90;3.33;;;25.00;34.90;;;;;;5023850;28;20147;-45
2021/12/29 07:58:35;;;;;;;3.92;2.63;;;25.00;34.80;;;;;;5023557;28;20037;-45
2021/12/29 08:01:02;;;;;;;4.93;2.83;;;25.00;34.70;;;;;;5025057;28;20620;-45
2021/12/29 08:03:28;;;;;;;5.18;3.85;;;25.00;34.70;;;;;;5024356;28;20017;-45
2021/12/29 08:05:55;;;;;;;4.68;3.08;;;25.00;34.50;;;;;;5017038;28;20026;-45
2021/12/29 08:08:21;;;;;;;4.80;2.60;;;25.00;34.50;;;;;;5013512;28;20026;-45
2021/12/29 08:10:46;;;;;;;4.32;3.00;;;25.00;34.70;;;;;;5005220;28;20493;-45
2021/12/29 08:13:12;;;;;;;4.68;2.60;;;25.10;34.50;;;;;;5017236;28;20104;-45
2021/12/29 08:15:38;;;;;;;4.65;2.75;;;25.00;34.50;;;;;;5023382;28;20026;-45
2021/12/29 08:18:05;;;;;;;4.97;2.75;;;25.10;34.40;;;;;;5025145;28;20026;-45
2021/12/29 08:20:32;;;;;;;3.90;2.72;;;25.10;34.20;;;;;;5025069;28;20032;-45
2021/12/29 08:22:59;;;;;;;6.53;3.35;;;25.10;34.20;;;;;;5023949;28;20056;-46
2021/12/29 08:25:25;;;;;;;6.22;2.83;;;25.10;34.30;;;;;;5019951;28;20039;-46
2021/12/29 08:27:50;;;;;;;4.53;3.00;;;25.10;34.10;;;;;;5004922;28;20033;-49
2021/12/29 08:30:16;;;;;;;4.85;3.22;;;25.10;34.10;;;;;;5005697;28;20029;-45
2021/12/29 08:32:42;;;;;;;4.00;2.97;;;25.10;34.10;;;;;;5006746;28;20017;-46
2021/12/29 08:35:08;;;;;;;5.10;3.20;;;25.10;34.10;;;;;;5023444;28;20026;-45
2021/12/29 08:37:34;;;;;;;7.97;3.42;;;25.10;34.00;;;;;;5022968;28;20108;-45
2021/12/29 08:40:01;;;;;;;6.38;3.72;;;25.20;33.90;;;;;;5023518;28;20104;-46
2021/12/29 08:42:27;;;;;;;5.15;3.33;;;25.20;33.90;;;;;;5005790;28;20042;-45
2021/12/29 08:44:52;;;;;;;5.10;3.17;;;25.20;34.00;;;;;;5019679;28;20541;-45
2021/12/29 08:47:18;;;;;;;5.10;3.50;;;25.20;33.90;;;;;;5024922;28;20037;-46
2021/12/29 08:49:44;;;;;;;4.47;3.00;;;25.20;33.80;;;;;;5024325;28;20029;-47
2021/12/29 08:52:10;;;;;;;4.60;2.83;;;25.20;33.90;;;;;;5025436;28;20404;-46
2021/12/29 08:54:37;;;;;;;4.80;3.00;;;25.20;33.90;;;;;;5025191;28;20205;-46
2021/12/29 08:57:03;;;;;;;5.57;3.38;;;25.20;33.80;;;;;;5009116;28;20052;-46
2021/12/29 08:59:29;;;;;;;4.57;2.97;;;25.20;33.80;;;;;;5004908;28;20056;-45
2021/12/29 09:01:55;;;;;;;6.63;3.30;;;25.20;33.80;;;;;;5004410;28;20037;-45
2021/12/29 09:04:20;;;;;;;4.47;2.97;;;25.20;33.80;;;;;;5005063;28;20026;-45
2021/12/29 09:06:46;;;;;;;4.30;2.90;;;25.20;33.80;;;;;;5004521;28;20610;-46
2021/12/29 09:09:12;;;;;;;5.88;2.90;;;25.30;33.90;;;;;;5004976;28;20534;-44
2021/12/29 09:11:39;;;;;;;4.80;3.08;;;25.20;33.90;;;;;;5005156;28;20501;-45
2021/12/29 09:14:05;;;;;;;4.63;3.05;;;25.20;33.80;;;;;;5004525;28;20038;-46
2021/12/29 09:16:31;;;;;;;4.63;3.33;;;25.20;33.80;;;;;;5008721;28;20554;-46
2021/12/29 09:18:57;;;;;;;6.38;3.83;;;25.20;33.70;;;;;;5022206;28;20021;-46
2021/12/29 09:21:23;;;;;;;4.90;3.25;;;25.30;33.70;;;;;;5016682;28;20495;-45
2021/12/29 09:23:49;;;;;;;5.75;3.60;;;25.30;33.70;;;;;;5022476;28;20025;-48
2021/12/29 09:26:16;;;;;;;4.80;2.97;;;25.30;33.70;;;;;;5019960;28;20025;-48
2021/12/29 09:28:44;;;;;;;5.35;3.15;;;25.30;33.70;;;;;;5024363;28;20041;-46
2021/12/29 09:31:10;;;;;;;4.82;3.45;;;25.30;33.70;;;;;;5023107;28;20030;-48
2021/12/29 09:33:36;;;;;;;5.95;3.67;;;25.30;33.70;;;;;;5018053;28;20029;-47
2021/12/29 09:36:03;;;;;;;6.45;4.28;;;25.30;33.60;;;;;;5014290;28;20592;-48
2021/12/29 09:38:38;;;;;;;9.48;8.38;;;25.30;33.70;;;;;;5024320;28;20025;-48
2021/12/29 09:41:12;;;;;;;9.30;7.40;;;25.30;33.70;;;;;;5017273;28;20033;-47
2021/12/29 09:43:38;;;;;;;9.27;7.22;;;25.40;33.70;;;;;;5024098;28;20049;-46
2021/12/29 09:46:06;;;;;;;8.57;6.47;;;25.30;33.60;;;;;;5024270;28;20037;-48
2021/12/29 09:48:33;;;;;;;5.72;5.10;;;25.30;33.60;;;;;;5023012;28;20530;-47
2021/12/29 09:50:59;;;;;;;6.70;5.50;;;25.40;33.60;;;;;;5026034;28;20052;-47
2021/12/29 09:53:24;;;;;;;6.25;4.55;;;25.40;33.50;;;;;;5023872;28;20481;-49
2021/12/29 09:55:50;;;;;;;7.20;4.65;;;25.40;33.40;;;;;;5019498;28;20030;-47
2021/12/29 09:58:19;;;;;;;5.70;4.32;;;25.40;33.40;;;;;;5004447;28;20109;-49
2021/12/29 10:01:06;;;;;;;6.05;3.80;;;25.40;33.40;;;;;;5003968;28;20656;-47
2021/12/29 10:03:32;;;;;;;5.30;3.80;;;25.40;33.40;;;;;;5015225;28;20042;-47
2021/12/29 10:06:01;;;;;;;5.72;3.95;;;25.40;33.40;;;;;;5003807;28;20571;-46
2021/12/29 10:08:30;;;;;;;5.30;3.53;;;25.40;33.30;;;;;;5013799;28;20048;-48
2021/12/29 10:11:32;;;;;;;5.13;4.00;;;25.40;33.30;;;;;;5002902;28;20572;-45
2021/12/29 10:13:58;;;;;;;5.68;4.20;;;25.40;33.50;;;;;;4998897;28;20034;-47
2021/12/29 10:16:28;;;;;;;5.03;3.70;;;25.40;33.40;;;;;;5003233;28;20076;-46
2021/12/29 10:19:09;;;;;;;4.93;3.90;;;25.40;33.60;;;;;;5003813;28;20773;-47
2021/12/29 10:21:41;;;;;;;5.47;3.38;;;25.40;33.50;;;;;;5003577;28;20030;-47
2021/12/29 10:24:07;;;;;;;4.90;3.20;;;25.40;33.50;;;;;;5020820;28;20029;-47
2021/12/29 10:26:36;;;;;;;5.18;3.35;;;25.40;33.50;;;;;;5020924;28;20040;-47
2021/12/29 10:29:07;;;;;;;4.90;3.88;;;25.40;33.50;;;;;;5022050;28;20087;-48
2021/12/29 10:31:38;;;;;;;5.55;3.47;;;25.40;33.50;;;;;;5021868;28;20029;-46
2021/12/29 10:34:19;;;;;;;6.30;3.92;;;25.40;33.50;;;;;;5019198;28;20017;-47
2021/12/29 10:36:58;;;;;;;6.00;3.67;;;25.50;33.50;;;;;;5004038;28;20022;-48
2021/12/29 10:39:34;;;;;;;6.10;4.07;;;25.50;33.40;;;;;;5003081;28;20534;-47
2021/12/29 10:42:02;;;;;;;5.88;4.05;;;25.50;33.40;;;;;;5004067;28;20026;-47
2021/12/29 10:44:35;;;;;;;5.22;3.80;;;25.40;33.30;;;;;;5017643;28;20579;-52
2021/12/29 10:47:37;;;;;;;6.00;4.28;;;25.40;33.30;;;;;;5003514;28;20030;-47
2021/12/29 10:50:12;;;;;;;4.95;3.58;;;25.50;33.30;;;;;;5016259;28;20025;-49
2021/12/29 10:52:40;;;;;;;5.47;4.15;;;25.50;33.40;;;;;;5004789;28;20173;-48
2021/12/29 10:55:31;;;;;;;8.55;4.72;;;25.50;33.40;;;;;;5003291;28;20044;-49
2021/12/29 10:58:06;;;;;;;7.13;4.13;;;25.50;33.50;;;;;;5020260;28;20029;-47
2021/12/29 11:00:35;;;;;;;4.90;3.40;;;25.50;33.40;;;;;;5024986;28;20124;-47
2021/12/29 11:03:34;;;;;;;6.18;4.07;;;25.50;33.30;;;;;;5024587;28;20025;-47
2021/12/29 11:06:03;;;;;;;5.90;4.53;;;25.50;33.40;;;;;;5012258;28;20751;-47
2021/12/29 11:08:45;;;;;;;5.18;4.03;;;25.50;33.30;;;;;;5018878;28;20105;-47
2021/12/29 11:11:10;;;;;;;5.40;3.97;;;25.50;33.20;;;;;;5016532;28;20060;-47
2021/12/29 11:13:36;;;;;;;7.32;4.57;;;25.50;33.10;;;;;;5025913;28;20069;-47
2021/12/29 11:16:04;;;;;;;6.55;4.78;;;25.50;33.00;;;;;;5023350;28;20441;-47
2021/12/29 11:18:49;;;;;;;4.97;3.83;;;25.50;33.20;;;;;;5019931;28;20029;-48
2021/12/29 11:21:31;;;;;;;5.22;4.03;;;25.40;33.20;;;;;;5026287;28;20028;-47
2021/12/29 11:24:09;;;;;;;6.55;4.10;;;25.40;33.30;;;;;;5024034;28;20021;-48
2021/12/29 11:26:35;;;;;;;6.78;4.45;;;25.40;33.50;;;;;;5017516;28;20057;-47
2021/12/29 11:29:15;;;;;;;7.20;4.68;;;25.40;34.10;;;;;;5022442;28;20060;-46
2021/12/29 11:31:50;;;;;;;5.30;4.20;;;25.40;33.60;;;;;;5016331;28;20037;-48
2021/12/29 11:34:26;;;;;;;5.57;3.55;;;25.40;33.50;;;;;;5017837;28;20020;-47
2021/12/29 11:37:00;;;;;;;6.18;4.35;;;25.40;33.50;;;;;;5012796;28;20026;-50
2021/12/29 11:39:27;;;;;;;5.78;4.10;;;25.40;33.90;;;;;;5016095;28;20437;-47
2021/12/29 11:41:53;;;;;;;5.60;4.35;;;25.40;33.80;;;;;;5017575;28;20113;-48
2021/12/29 11:44:19;;;;;;;5.72;3.83;;;25.40;33.70;;;;;;5009046;28;20109;-49
2021/12/29 11:46:45;;;;;;;6.30;4.13;;;25.50;33.70;;;;;;5010724;28;20072;-47
2021/12/29 11:49:10;;;;;;;5.63;4.20;;;25.40;33.80;;;;;;5018926;28;20037;-48
2021/12/29 11:51:52;;;;;;;5.93;4.10;;;25.40;33.80;;;;;;5022725;28;20104;-48
2021/12/29 11:54:27;;;;;;;5.53;3.90;;;25.40;33.90;;;;;;5016374;28;20018;-47
2021/12/29 11:56:53;;;;;;;5.55;3.60;;;25.50;33.90;;;;;;5017626;28;20038;-46
2021/12/29 11:59:30;;;;;;;5.35;3.90;;;25.50;33.90;;;;;;5016496;28;20080;-46
2021/12/29 12:02:00;;;;;;;5.55;3.40;;;25.50;33.80;;;;;;5022739;28;20096;-49
2021/12/29 12:04:26;;;;;;;4.88;3.00;;;25.50;33.70;;;;;;5020365;28;20038;-47
2021/12/29 12:07:01;;;;;;;5.55;4.00;;;25.40;33.70;;;;;;5004336;28;20026;-46
2021/12/29 12:09:27;;;;;;;4.97;3.75;;;25.40;33.70;;;;;;5005147;28;20088;-47
2021/12/29 12:11:54;;;;;;;3.92;2.55;;;25.40;33.60;;;;;;5014643;28;20026;-46
2021/12/29 12:14:31;;;;;;;4.32;3.00;;;25.50;33.70;;;;;;5025751;28;20457;-47
2021/12/29 12:17:03;;;;;;;4.78;3.38;;;25.50;33.60;;;;;;5024298;28;20029;-47
2021/12/29 12:19:31;;;;;;;5.00;3.38;;;25.50;33.50;;;;;;5020330;28;20120;-48
2021/12/29 12:22:17;;;;;;;4.70;3.47;;;25.50;33.50;;;;;;5025916;28;20234;-48
2021/12/29 12:24:52;;;;;;;4.40;3.17;;;25.50;33.50;;;;;;5026043;28;20036;-48
2021/12/29 12:27:28;;;;;;;4.63;2.88;;;25.50;33.50;;;;;;5025531;28;20034;-48
2021/12/29 12:30:11;;;;;;;5.28;3.10;;;25.50;33.40;;;;;;5025761;28;20029;-47
2021/12/29 12:32:51;;;;;;;4.32;3.05;;;25.50;33.40;;;;;;5025086;28;20035;-48
2021/12/29 12:35:39;;;;;;;4.30;2.90;;;25.50;33.50;;;;;;5025390;28;20087;-47
2021/12/29 12:38:26;;;;;;;4.95;3.53;;;25.50;33.50;;;;;;5025869;28;20127;-47
2021/12/29 12:41:14;;;;;;;5.05;4.20;;;25.40;33.50;;;;;;5007281;28;20113;-47
2021/12/29 12:43:57;;;;;;;5.47;3.83;;;25.40;33.50;;;;;;5005462;28;20571;-48
2021/12/29 12:46:34;;;;;;;4.80;3.03;;;25.40;33.50;;;;;;5004438;28;20066;-47
2021/12/29 12:49:10;;;;;;;3.95;2.67;;;25.50;33.50;;;;;;5005679;28;20125;-47
2021/12/29 12:51:36;;;;;;;4.13;2.85;;;25.40;33.50;;;;;;5040752;28;20029;-48
2021/12/29 12:54:15;;;;;;;4.35;2.80;;;25.40;33.60;;;;;;5014665;28;20033;-47
2021/12/29 12:56:45;;;;;;;3.75;2.58;;;25.40;33.50;;;;;;5021191;28;20071;-48
2021/12/29 12:59:12;;;;;;;4.05;2.65;;;25.40;33.50;;;;;;5024939;28;20037;-48
2021/12/29 13:01:45;;;;;;;3.95;2.55;;;25.40;33.60;;;;;;5016751;28;20049;-48